Terminal Aerodrome Forecast
Issued by NWS

Home | Current Version | Previous Version | Text Only | Print | Product List | Glossary On
Versions: 1 2 3 4 5 6 7 8 9 10 11 12 13 14 15 16 17
091
FTUS46 KSEW 251120
TAFHQM
TAF
KHQM 251120Z 2512/2612 04006KT P6SM SCT040
      TEMPO 2512/2516 4SM BR BKN035
     FM251600 VRB04KT P6SM BKN040
     FM252100 23009KT P6SM SCT015 OVC030
     FM260300 21007KT P6SM -RA BKN015 OVC025
     FM260700 18014G23KT 4SM -RA BR OVC010=

USA.gov is the U.S. government's official web portal to all federal, state and local government web resources and services.